Time;durP1;ratioP1;P1;durP2;ratioP2;P2;SDS_P1;SDS_P2;PMS_P1;PMS_P2;Temp;Humidity;BMP_temperature;BMP_pressure;BME280_temperature;BME280_humidity;BME280_pressure;Samples;Min_cycle;Max_cycle;Signal;HPM_P1;HPM_P2
2021/04/29 00:00:49;;;;;;;9.35;6.03;;;;;;;12.98;72.58;98440.63;2211682;40;20038;-79
2021/04/29 00:02:21;;;;;;;7.75;5.47;;;;;;;13.01;72.84;98442.06;2215307;40;20049;-79
2021/04/29 00:03:52;;;;;;;6.80;4.88;;;;;;;13.03;72.64;98442.69;2216487;40;20062;-80
2021/04/29 00:05:27;;;;;;;7.43;4.15;;;;;;;13.04;72.52;98439.81;2215105;40;20108;-79
2021/04/29 00:07:00;;;;;;;7.68;4.82;;;;;;;13.07;72.50;98433.22;2210123;40;20143;-79
2021/04/29 00:08:33;;;;;;;11.57;6.90;;;;;;;13.01;72.52;98434.84;2208397;40;20054;-79
2021/04/29 00:10:05;;;;;;;9.18;5.30;;;;;;;12.96;72.87;98434.63;2213883;40;20037;-78
2021/04/29 00:11:39;;;;;;;12.43;7.38;;;;;;;12.91;73.05;98432.53;2214853;40;20045;-79
2021/04/29 00:13:11;;;;;;;11.50;7.13;;;;;;;12.81;73.31;98432.06;2216891;40;20030;-79
2021/04/29 00:14:42;;;;;;;9.18;6.15;;;;;;;12.72;73.65;98433.25;2209827;40;20333;-78
2021/04/29 00:16:14;;;;;;;8.65;5.50;;;;;;;12.75;73.83;98438.25;2216930;40;20041;-80
2021/04/29 00:17:46;;;;;;;8.00;6.30;;;;;;;12.77;73.87;98446.88;2215971;40;20044;-79
2021/04/29 00:19:17;;;;;;;8.65;6.05;;;;;;;12.77;74.09;98433.47;2219265;40;20038;-79
2021/04/29 00:20:54;;;;;;;7.03;5.30;;;;;;;12.82;74.07;98433.72;2217862;40;20029;-80
2021/04/29 00:22:27;;;;;;;6.95;4.72;;;;;;;12.89;73.93;98431.09;2217764;40;20038;-80
2021/04/29 00:23:59;;;;;;;7.93;5.32;;;;;;;12.89;73.92;98442.63;2217477;40;20036;-79
2021/04/29 00:25:30;;;;;;;9.02;6.90;;;;;;;12.93;74.05;98438.53;2215247;40;20053;-79
2021/04/29 00:27:01;;;;;;;9.52;6.03;;;;;;;12.88;74.25;98432.09;2216661;40;20425;-78
2021/04/29 00:28:32;;;;;;;9.02;5.80;;;;;;;12.84;74.49;98433.53;2214866;40;20050;-79
2021/04/29 00:30:06;;;;;;;6.90;5.15;;;;;;;12.84;74.53;98437.03;2216173;40;20034;-78
2021/04/29 00:31:38;;;;;;;8.35;4.97;;;;;;;12.86;74.53;98434.97;2213336;40;20452;-79
2021/04/29 00:33:10;;;;;;;6.85;4.35;;;;;;;12.90;74.40;98438.91;2217684;40;20026;-79
2021/04/29 00:34:41;;;;;;;6.28;3.92;;;;;;;12.98;74.00;98437.09;2213883;40;20029;-79
2021/04/29 00:36:13;;;;;;;7.43;4.90;;;;;;;13.00;73.77;98432.34;2215771;40;20037;-78
2021/04/29 00:37:47;;;;;;;9.95;6.30;;;;;;;12.95;73.76;98431.09;2219266;40;20039;-79
2021/04/29 00:39:18;;;;;;;9.15;5.95;;;;;;;12.89;73.98;98433.78;2210424;40;20037;-79
2021/04/29 00:40:50;;;;;;;8.55;6.20;;;;;;;12.83;74.24;98439.91;2209629;40;20454;-80
2021/04/29 00:42:21;;;;;;;9.80;6.30;;;;;;;12.75;74.46;98438.25;2215464;40;20037;-79
2021/04/29 00:43:53;;;;;;;10.35;7.15;;;;;;;12.69;74.81;98436.31;2215836;40;20089;-79
2021/04/29 00:45:24;;;;;;;9.18;5.45;;;;;;;12.66;74.99;98442.91;2216926;40;20099;-80
2021/04/29 00:46:58;;;;;;;9.48;5.75;;;;;;;12.67;74.74;98443.72;2215632;40;20034;-79
2021/04/29 00:48:29;;;;;;;8.88;6.60;;;;;;;12.69;74.89;98449.72;2216817;40;20072;-78
2021/04/29 00:50:01;;;;;;;7.63;4.97;;;;;;;12.68;74.91;98453.44;2216090;39;20122;-79
2021/04/29 00:51:32;;;;;;;9.75;6.28;;;;;;;12.69;75.01;98460.47;2217232;40;20034;-80
2021/04/29 00:53:05;;;;;;;8.27;6.45;;;;;;;12.63;75.22;98470.97;2216018;40;20054;-79
2021/04/29 00:54:37;;;;;;;8.48;7.25;;;;;;;12.53;76.12;98483.03;2216764;40;20041;-79
2021/04/29 00:56:09;;;;;;;8.70;6.15;;;;;;;12.47;76.65;98480.13;2194542;40;20041;-80
2021/04/29 00:57:43;;;;;;;10.55;7.68;;;;;;;12.46;77.08;98488.38;2210657;40;20143;-80
2021/04/29 00:59:16;;;;;;;11.00;6.78;;;;;;;12.43;77.14;98483.38;2215336;40;20030;-79
2021/04/29 01:00:47;;;;;;;11.45;7.28;;;;;;;12.47;77.21;98481.97;2216046;40;20092;-80
2021/04/29 01:02:19;;;;;;;9.38;6.40;;;;;;;12.45;77.22;98476.81;2165729;40;20035;-79
2021/04/29 01:03:55;;;;;;;10.95;7.35;;;;;;;12.50;77.31;98473.53;2193495;40;20113;-78
2021/04/29 01:05:32;;;;;;;9.90;7.90;;;;;;;12.52;77.30;98474.19;2214839;40;20045;-79
2021/04/29 01:07:09;;;;;;;9.88;7.38;;;;;;;12.52;77.30;98482.22;2217156;40;20153;-80
2021/04/29 01:08:50;;;;;;;9.80;7.82;;;;;;;12.44;77.31;98477.00;2210985;40;20119;-79
2021/04/29 01:10:27;;;;;;;8.43;6.35;;;;;;;12.34;77.51;98480.00;2218574;40;20037;-81
2021/04/29 01:12:01;;;;;;;11.52;8.55;;;;;;;12.40;77.48;98470.38;2170798;40;20054;-80
2021/04/29 01:13:36;;;;;;;10.55;7.80;;;;;;;12.40;77.38;98468.53;2209239;40;20026;-80
2021/04/29 01:15:10;;;;;;;9.45;6.88;;;;;;;12.43;77.25;98464.63;2212154;40;20047;-79
2021/04/29 01:16:42;;;;;;;14.15;8.02;;;;;;;12.40;77.31;98462.34;2210907;40;20452;-81
2021/04/29 01:18:15;;;;;;;9.60;6.65;;;;;;;12.39;77.37;98466.03;2211771;40;20065;-79
2021/04/29 01:19:53;;;;;;;9.13;7.38;;;;;;;12.47;77.00;98463.19;2210215;40;20050;-79
2021/04/29 01:21:28;;;;;;;9.50;6.40;;;;;;;12.55;76.63;98463.06;2211217;40;20366;-79
2021/04/29 01:23:08;;;;;;;10.95;8.98;;;;;;;12.49;76.94;98471.88;2209453;40;20053;-79
2021/04/29 01:24:56;;;;;;;12.40;8.60;;;;;;;12.39;76.68;98466.88;2211347;40;20046;-79
2021/04/29 01:26:45;;;;;;;11.30;8.52;;;;;;;12.35;77.06;98476.31;2201838;40;20558;-79
2021/04/29 01:28:18;;;;;;;10.07;7.22;;;;;;;12.32;77.45;98472.19;2214031;40;20041;-79
2021/04/29 01:29:51;;;;;;;10.93;8.82;;;;;;;12.31;77.30;98467.84;2215409;40;20073;-80
2021/04/29 01:31:27;;;;;;;12.15;9.20;;;;;;;12.31;77.34;98467.84;2217907;40;20041;-79
2021/04/29 01:32:59;;;;;;;9.85;7.85;;;;;;;12.29;77.52;98471.75;2215911;40;20613;-80
2021/04/29 01:34:37;;;;;;;9.40;6.65;;;;;;;12.27;77.40;98466.59;2216073;40;20036;-79
2021/04/29 01:36:09;;;;;;;11.45;8.07;;;;;;;12.28;77.58;98475.44;2217823;40;20034;-79
2021/04/29 01:37:43;;;;;;;10.40;7.78;;;;;;;12.25;77.47;98474.00;2216304;40;20037;-79
2021/04/29 01:39:24;;;;;;;13.88;9.40;;;;;;;12.25;77.61;98476.66;2218108;40;20026;-79
2021/04/29 01:40:56;;;;;;;11.43;8.65;;;;;;;12.20;77.73;98476.41;2216201;40;20050;-79
2021/04/29 01:42:29;;;;;;;10.13;7.38;;;;;;;12.18;77.92;98481.16;2217760;40;20034;-80
2021/04/29 01:44:02;;;;;;;10.27;8.82;;;;;;;12.20;78.03;98483.63;2216004;40;20531;-79
2021/04/29 01:45:33;;;;;;;10.68;8.45;;;;;;;12.19;78.09;98482.78;2216972;40;20046;-79
2021/04/29 01:47:06;;;;;;;11.57;8.00;;;;;;;12.19;78.07;98490.81;2215407;40;20050;-80
2021/04/29 01:48:38;;;;;;;13.15;9.10;;;;;;;12.16;78.10;98480.50;2210713;40;20424;-79
2021/04/29 01:50:12;;;;;;;14.10;9.65;;;;;;;12.17;78.24;98487.53;2209036;40;20329;-79
2021/04/29 01:51:44;;;;;;;12.90;9.50;;;;;;;12.16;78.24;98483.19;2217095;40;20322;-79
2021/04/29 01:53:16;;;;;;;9.25;8.00;;;;;;;12.17;78.36;98484.84;2215335;40;20049;-79
2021/04/29 01:54:47;;;;;;;8.73;6.57;;;;;;;12.13;78.43;98487.09;2216641;40;20026;-79
2021/04/29 01:56:19;;;;;;;9.52;7.57;;;;;;;12.12;78.46;98489.94;2183115;40;20034;-79
2021/04/29 01:57:53;;;;;;;12.55;9.40;;;;;;;12.14;78.65;98501.28;2211418;40;20037;-79
2021/04/29 01:59:25;;;;;;;9.68;6.70;;;;;;;12.15;78.40;98497.59;2202890;40;20093;-80
2021/04/29 02:00:56;;;;;;;9.85;6.40;;;;;;;12.16;78.27;98493.91;2211031;40;20049;-78
2021/04/29 02:02:28;;;;;;;9.85;7.78;;;;;;;12.21;78.08;98494.13;2208649;40;20050;-79
2021/04/29 02:03:59;;;;;;;8.88;7.75;;;;;;;12.28;77.95;98500.38;2210810;40;20042;-80
2021/04/29 02:05:31;;;;;;;12.23;9.02;;;;;;;12.31;77.69;98502.66;2202118;40;20127;-79
2021/04/29 02:07:04;;;;;;;11.70;8.93;;;;;;;12.31;77.92;98502.66;2211225;40;20055;-79
2021/04/29 02:08:35;;;;;;;9.82;8.77;;;;;;;12.25;77.86;98503.47;2209393;40;20292;-79
2021/04/29 02:10:08;;;;;;;10.63;7.63;;;;;;;12.20;78.30;98502.38;2211328;40;20038;-79
2021/04/29 02:11:45;;;;;;;12.00;9.32;;;;;;;12.17;78.38;98511.63;2196608;40;20045;-79
2021/04/29 02:13:18;;;;;;;11.98;9.02;;;;;;;12.17;78.44;98509.78;2211019;40;20030;-78
2021/04/29 02:14:54;;;;;;;8.75;7.40;;;;;;;12.19;78.38;98512.25;2208825;40;20049;-80
2021/04/29 02:16:33;;;;;;;12.05;9.88;;;;;;;12.17;78.47;98509.78;2211476;40;20095;-81
2021/04/29 02:18:08;;;;;;;11.68;8.93;;;;;;;12.18;78.46;98513.28;2175916;40;20055;-79
2021/04/29 02:19:43;;;;;;;11.07;8.75;;;;;;;12.19;78.58;98509.56;2198946;40;20577;-79
2021/04/29 02:21:17;;;;;;;12.52;8.75;;;;;;;12.25;78.59;98508.81;2211125;40;20038;-80
2021/04/29 02:22:50;;;;;;;12.63;9.63;;;;;;;12.26;78.95;98515.84;2201953;40;27805;-79
2021/04/29 02:24:23;;;;;;;13.02;10.18;;;;;;;12.25;78.73;98514.19;2216379;40;20044;-80
2021/04/29 02:26:00;;;;;;;11.95;9.38;;;;;;;12.25;78.74;98516.00;2195570;40;20045;-79
2021/04/29 02:27:34;;;;;;;9.73;7.63;;;;;;;12.22;78.81;98511.06;2211710;40;20026;-79
2021/04/29 02:29:07;;;;;;;12.50;9.20;;;;;;;12.17;78.79;98517.81;2212916;40;20037;-79
2021/04/29 02:30:39;;;;;;;13.60;10.30;;;;;;;12.15;78.89;98524.38;2211468;40;20033;-79
2021/04/29 02:32:10;;;;;;;12.35;10.68;;;;;;;12.14;78.93;98528.91;2211816;40;20038;-79
2021/04/29 02:33:41;;;;;;;12.38;10.23;;;;;;;12.10;79.03;98529.47;2213000;40;20503;-80
2021/04/29 02:35:15;;;;;;;13.57;11.10;;;;;;;12.01;79.06;98526.94;2219107;40;20045;-79
2021/04/29 02:36:48;;;;;;;11.13;9.50;;;;;;;12.03;79.23;98534.78;2218228;40;20338;-80
2021/04/29 02:38:20;;;;;;;11.65;9.57;;;;;;;12.08;79.27;98539.56;2213279;40;20060;-79
2021/04/29 02:39:52;;;;;;;11.75;9.27;;;;;;;12.07;79.07;98540.59;2215090;40;20146;-79
2021/04/29 02:41:24;;;;;;;12.82;9.98;;;;;;;12.06;79.34;98536.25;2191677;40;20036;-78
2021/04/29 02:42:56;;;;;;;13.40;9.40;;;;;;;12.02;79.60;98533.94;2217559;40;20279;-79
2021/04/29 02:44:29;;;;;;;13.48;8.77;;;;;;;12.04;79.63;98541.81;2186191;40;20041;-79
2021/04/29 02:46:02;;;;;;;10.10;7.75;;;;;;;12.11;79.59;98540.00;2210562;40;20050;-79
2021/04/29 02:47:33;;;;;;;12.85;9.98;;;;;;;12.10;79.88;98548.22;2197653;40;20042;-80
2021/04/29 02:49:07;;;;;;;14.65;10.50;;;;;;;12.06;79.76;98557.69;2206785;40;20057;-79
2021/04/29 02:50:43;;;;;;;11.38;7.72;;;;;;;12.08;79.80;98550.28;2209107;40;20054;-80
2021/04/29 02:52:15;;;;;;;10.52;8.68;;;;;;;12.08;79.78;98556.47;2211368;40;20045;-79
2021/04/29 02:53:46;;;;;;;12.43;9.98;;;;;;;12.11;79.69;98560.59;2212569;40;20053;-80
2021/04/29 02:55:19;;;;;;;12.63;7.88;;;;;;;12.13;79.91;98566.59;2211393;40;20077;-79
2021/04/29 02:56:50;;;;;;;12.60;10.30;;;;;;;12.11;79.85;98576.66;2171562;40;20053;-81
2021/04/29 02:58:21;;;;;;;12.52;10.25;;;;;;;12.01;80.10;98566.28;2214351;40;20033;-79
2021/04/29 02:59:54;;;;;;;10.38;7.80;;;;;;;12.08;80.18;98569.84;2215753;40;20049;-79
2021/04/29 03:01:25;;;;;;;10.90;9.30;;;;;;;12.14;79.74;98571.75;2215061;40;20026;-81
2021/04/29 03:02:57;;;;;;;12.88;10.35;;;;;;;12.08;79.73;98572.53;2214817;40;20099;-79
2021/04/29 03:04:28;;;;;;;11.55;8.98;;;;;;;12.00;79.75;98575.34;2209485;40;20041;-79
2021/04/29 03:06:00;;;;;;;13.10;10.18;;;;;;;12.01;79.81;98577.00;2220326;40;20056;-79
2021/04/29 03:07:31;;;;;;;10.63;8.45;;;;;;;11.99;79.93;98587.06;2217495;40;20025;-80
2021/04/29 03:09:04;;;;;;;11.13;8.68;;;;;;;12.02;79.91;98584.84;2217350;40;20034;-81
2021/04/29 03:10:35;;;;;;;10.82;9.10;;;;;;;12.05;79.80;98580.13;2215622;40;20030;-79
2021/04/29 03:12:08;;;;;;;10.80;9.13;;;;;;;12.08;79.59;98577.88;2216996;40;20037;-80
2021/04/29 03:13:40;;;;;;;11.77;8.32;;;;;;;12.11;79.61;98588.22;2215109;40;20380;-79
2021/04/29 03:15:15;;;;;;;13.95;9.23;;;;;;;12.08;79.33;98591.28;2217215;40;20131;-80
2021/04/29 03:16:46;;;;;;;11.30;8.38;;;;;;;11.98;79.39;98593.44;2213753;40;20049;-80
2021/04/29 03:18:17;;;;;;;11.05;9.10;;;;;;;11.93;79.65;98593.97;2217312;40;20057;-81
2021/04/29 03:19:49;;;;;;;10.00;8.25;;;;;;;11.90;79.64;98602.41;2180960;40;20051;-79
2021/04/29 03:21:20;;;;;;;15.82;8.95;;;;;;;11.88;80.10;98593.72;2217101;40;20451;-80
2021/04/29 03:22:51;;;;;;;10.30;8.68;;;;;;;11.84;79.82;98603.13;2215091;40;20049;-80
2021/04/29 03:24:23;;;;;;;9.88;8.88;;;;;;;11.78;79.96;98598.53;2211708;40;20045;-80
2021/04/29 03:25:54;;;;;;;10.65;8.45;;;;;;;11.74;80.02;98607.94;2200967;40;20056;-80
2021/04/29 03:27:26;;;;;;;10.52;8.70;;;;;;;11.70;80.26;98608.34;2211573;40;20046;-79
2021/04/29 03:28:57;;;;;;;9.68;8.57;;;;;;;11.68;80.46;98610.38;2215489;40;20565;-80
2021/04/29 03:30:32;;;;;;;10.13;7.63;;;;;;;11.68;80.44;98613.06;2217861;40;20068;-79
2021/04/29 03:32:03;;;;;;;10.85;8.77;;;;;;;11.73;80.40;98617.84;2185008;40;20039;-81
2021/04/29 03:33:36;;;;;;;10.85;7.72;;;;;;;11.70;80.16;98619.06;2211024;40;20026;-80
2021/04/29 03:35:08;;;;;;;10.80;9.00;;;;;;;11.65;80.08;98609.94;2203765;40;20485;-80
2021/04/29 03:36:41;;;;;;;7.97;6.45;;;;;;;11.62;80.07;98613.78;2202437;40;20055;-80
2021/04/29 03:38:12;;;;;;;9.30;7.97;;;;;;;11.63;80.02;98628.81;2197966;40;20091;-79
2021/04/29 03:39:44;;;;;;;9.43;7.70;;;;;;;11.63;79.84;98628.81;2199257;40;20035;-79
2021/04/29 03:41:16;;;;;;;9.55;7.75;;;;;;;11.62;79.84;98629.84;2201891;40;20042;-78
2021/04/29 03:42:47;;;;;;;9.05;7.63;;;;;;;11.60;79.74;98631.06;2214058;40;20080;-80
2021/04/29 03:44:19;;;;;;;9.88;7.03;;;;;;;11.61;79.82;98633.56;2215564;40;20040;-78
2021/04/29 03:45:51;;;;;;;8.55;7.03;;;;;;;11.61;79.77;98641.59;2217286;40;20046;-80
2021/04/29 03:47:23;;;;;;;9.77;7.22;;;;;;;11.62;79.56;98637.06;2216131;40;20095;-79
2021/04/29 03:48:53;;;;;;;8.07;6.78;;;;;;;11.59;79.35;98643.63;2216595;40;20026;-78
2021/04/29 03:50:25;;;;;;;8.98;6.82;;;;;;;11.57;79.23;98642.97;2215872;40;20053;-78
2021/04/29 03:51:56;;;;;;;8.55;6.85;;;;;;;11.58;79.18;98639.28;2218122;40;20490;-79
2021/04/29 03:53:27;;;;;;;7.85;6.65;;;;;;;11.59;79.04;98646.28;2217577;40;20107;-79
2021/04/29 03:54:59;;;;;;;9.23;7.18;;;;;;;11.59;79.23;98642.75;2218219;40;20026;-79
2021/04/29 03:56:30;;;;;;;8.95;6.95;;;;;;;11.60;78.95;98649.78;2215126;40;20482;-80
2021/04/29 03:58:01;;;;;;;8.77;7.00;;;;;;;11.60;78.79;98655.97;2211373;40;20062;-79
2021/04/29 03:59:33;;;;;;;7.45;6.38;;;;;;;11.62;78.83;98659.28;2209841;40;20108;-79
2021/04/29 04:01:04;;;;;;;10.30;6.93;;;;;;;11.65;78.80;98666.94;2215474;40;20030;-79
2021/04/29 04:02:36;;;;;;;8.25;6.60;;;;;;;11.67;78.83;98664.09;2214881;40;20046;-79
2021/04/29 04:04:08;;;;;;;8.05;6.50;;;;;;;11.62;78.55;98661.97;2218488;40;20394;-79
2021/04/29 04:05:39;;;;;;;9.30;6.55;;;;;;;11.64;78.71;98673.31;2216471;40;20073;-78
2021/04/29 04:07:11;;;;;;;8.07;6.43;;;;;;;11.67;78.69;98667.59;2217734;40;20382;-79
2021/04/29 04:08:42;;;;;;;7.93;6.45;;;;;;;11.68;78.43;98673.78;2216245;40;20060;-79
2021/04/29 04:10:13;;;;;;;9.70;6.20;;;;;;;11.65;78.01;98679.53;2217803;40;20294;-78
2021/04/29 04:11:44;;;;;;;8.18;6.30;;;;;;;11.61;78.00;98679.06;2216149;40;20057;-79
2021/04/29 04:13:18;;;;;;;8.55;6.97;;;;;;;11.56;78.01;98686.81;2211688;40;20432;-79
2021/04/29 04:14:49;;;;;;;8.48;6.35;;;;;;;11.58;78.14;98682.09;2214518;40;20386;-79
2021/04/29 04:16:21;;;;;;;8.13;6.00;;;;;;;11.58;77.98;98678.56;2219207;40;20037;-79
2021/04/29 04:17:53;;;;;;;7.70;6.20;;;;;;;11.56;77.97;98670.75;2217157;40;20037;-79
2021/04/29 04:19:24;;;;;;;8.70;5.97;;;;;;;11.55;77.97;98679.78;2218544;40;20044;-79
2021/04/29 04:20:56;;;;;;;7.78;6.30;;;;;;;11.59;78.04;98682.91;2217428;40;20052;-79
2021/04/29 04:22:27;;;;;;;8.32;6.40;;;;;;;11.61;77.94;98684.41;2217431;40;20034;-78
2021/04/29 04:23:58;;;;;;;8.55;6.45;;;;;;;11.59;78.10;98686.44;2218815;40;20037;-79
2021/04/29 04:25:30;;;;;;;7.05;5.90;;;;;;;11.59;78.16;98691.78;2217381;40;20065;-79
2021/04/29 04:27:01;;;;;;;7.68;5.50;;;;;;;11.62;78.09;98696.75;2218719;40;20034;-79
2021/04/29 04:28:32;;;;;;;7.85;5.78;;;;;;;11.61;77.88;98692.44;2217199;40;20037;-79
2021/04/29 04:30:04;;;;;;;8.32;5.88;;;;;;;11.59;77.95;98696.28;2218444;40;20034;-78
2021/04/29 04:31:36;;;;;;;6.53;5.32;;;;;;;11.56;78.02;98700.19;2195193;40;20030;-79
2021/04/29 04:33:08;;;;;;;7.05;4.85;;;;;;;11.55;77.95;98701.19;2213009;40;20515;-79
2021/04/29 04:34:39;;;;;;;7.38;5.18;;;;;;;11.51;77.59;98689.22;2187101;40;20417;-79
2021/04/29 04:36:10;;;;;;;6.32;4.30;;;;;;;11.51;77.67;98694.56;2219093;40;20030;-79
2021/04/29 04:37:42;;;;;;;7.25;4.35;;;;;;;11.53;77.14;98698.72;2217277;40;20034;-79
2021/04/29 04:39:13;;;;;;;6.00;4.10;;;;;;;11.58;77.26;98702.66;2221893;40;20500;-78
2021/04/29 04:40:45;;;;;;;6.82;4.40;;;;;;;11.58;76.74;98700.84;2210815;40;20034;-78
2021/04/29 04:42:16;;;;;;;8.90;4.75;;;;;;;11.55;76.54;98704.72;2212627;40;20045;-78
2021/04/29 04:43:48;;;;;;;8.88;4.30;;;;;;;11.55;76.42;98711.91;2216908;40;20064;-78
2021/04/29 04:45:19;;;;;;;6.50;4.38;;;;;;;11.61;76.20;98705.81;2218726;40;20045;-78
2021/04/29 04:46:51;;;;;;;7.70;4.35;;;;;;;11.64;75.95;98710.78;2217550;40;20056;-78
2021/04/29 04:48:22;;;;;;;6.55;4.10;;;;;;;11.69;75.72;98705.72;2219140;40;20053;-78
2021/04/29 04:49:53;;;;;;;6.65;4.15;;;;;;;11.69;75.45;98707.56;2188753;40;21378;-78
2021/04/29 04:51:25;;;;;;;9.68;4.63;;;;;;;11.67;75.41;98706.91;2213614;40;20075;-78
2021/04/29 04:52:56;;;;;;;7.75;4.65;;;;;;;11.62;75.41;98712.81;2211301;40;20597;-79
2021/04/29 04:54:34;;;;;;;6.95;3.70;;;;;;;11.62;75.36;98704.78;2214830;40;20322;-79
2021/04/29 04:56:07;;;;;;;9.73;4.70;;;;;;;11.60;75.25;98712.19;2214319;40;20110;-79
2021/04/29 04:57:38;;;;;;;7.13;4.60;;;;;;;11.60;75.16;98714.03;2215465;40;20119;-78
2021/04/29 04:59:10;;;;;;;7.47;5.10;;;;;;;11.63;75.16;98719.84;2214622;40;20053;-79
2021/04/29 05:00:42;;;;;;;8.02;5.13;;;;;;;11.66;75.09;98719.47;2219205;40;20178;-79
2021/04/29 05:02:15;;;;;;;7.15;4.50;;;;;;;11.67;74.93;98715.78;2220145;40;20045;-79
2021/04/29 05:03:46;;;;;;;7.43;4.95;;;;;;;11.64;74.98;98721.50;2220378;40;20033;-79
2021/04/29 05:05:18;;;;;;;9.05;5.82;;;;;;;11.58;74.98;98721.41;2218790;40;20065;-79
2021/04/29 05:06:49;;;;;;;6.35;4.20;;;;;;;11.56;75.27;98724.28;2220272;40;20037;-79
2021/04/29 05:08:20;;;;;;;7.20;4.90;;;;;;;11.60;75.08;98735.44;2218062;40;20104;-79
2021/04/29 05:09:52;;;;;;;7.32;4.78;;;;;;;11.55;75.05;98731.47;2220037;40;20045;-79
2021/04/29 05:11:23;;;;;;;7.63;5.40;;;;;;;11.53;75.05;98740.69;2217834;40;20037;-79
2021/04/29 05:12:55;;;;;;;7.93;4.43;;;;;;;11.55;75.17;98738.66;2219241;40;20041;-79
2021/04/29 05:14:28;;;;;;;8.30;4.63;;;;;;;11.58;75.07;98742.81;2217374;40;20265;-79
2021/04/29 05:16:00;;;;;;;6.80;4.47;;;;;;;11.57;74.85;98736.63;2212697;40;20042;-79
2021/04/29 05:17:31;;;;;;;6.05;3.92;;;;;;;11.64;74.87;98740.25;2212317;40;20037;-79
2021/04/29 05:19:04;;;;;;;6.50;4.50;;;;;;;11.72;74.59;98742.00;2219217;40;20110;-78
2021/04/29 05:20:35;;;;;;;6.60;3.90;;;;;;;11.79;74.48;98732.22;2216927;40;20060;-79
2021/04/29 05:22:06;;;;;;;6.90;4.95;;;;;;;11.83;74.09;98724.63;2218715;40;20298;-79
2021/04/29 05:23:38;;;;;;;11.65;5.22;;;;;;;11.78;73.89;98729.72;2217175;40;20053;-78
2021/04/29 05:25:09;;;;;;;6.80;5.07;;;;;;;11.74;74.02;98737.31;2219260;40;20030;-78
2021/04/29 05:26:40;;;;;;;7.57;4.60;;;;;;;11.76;74.00;98734.44;2217042;40;20325;-79
2021/04/29 05:28:11;;;;;;;5.95;3.97;;;;;;;11.83;73.94;98730.00;2218045;40;20092;-78
2021/04/29 05:29:42;;;;;;;5.97;4.40;;;;;;;11.93;73.70;98730.53;2216673;40;20045;-79
2021/04/29 05:31:14;;;;;;;9.98;5.30;;;;;;;11.99;73.53;98729.00;2218186;40;20057;-79
2021/04/29 05:32:46;;;;;;;7.93;4.60;;;;;;;12.00;73.39;98736.84;2216720;40;20049;-79
2021/04/29 05:34:17;;;;;;;7.15;4.53;;;;;;;12.01;73.40;98725.13;2218129;40;20180;-79
2021/04/29 05:35:49;;;;;;;7.75;4.63;;;;;;;12.02;73.09;98734.81;2222313;40;20082;-78
2021/04/29 05:37:20;;;;;;;6.80;4.18;;;;;;;12.01;73.12;98730.47;2219486;40;20045;-78
2021/04/29 05:38:51;;;;;;;7.15;4.78;;;;;;;12.03;72.99;98735.66;2217502;40;20041;-79
2021/04/29 05:40:23;;;;;;;6.53;4.55;;;;;;;12.01;73.03;98729.66;2217696;40;20036;-79
2021/04/29 05:41:54;;;;;;;7.63;4.55;;;;;;;12.01;73.01;98741.19;2211339;40;20396;-79
2021/04/29 05:43:26;;;;;;;7.40;4.55;;;;;;;12.00;73.21;98736.84;2209767;40;20141;-78
2021/04/29 05:44:57;;;;;;;7.47;4.93;;;;;;;11.98;73.28;98730.88;2216156;40;20049;-78
2021/04/29 05:46:28;;;;;;;6.88;4.10;;;;;;;12.02;73.26;98728.66;2216768;40;20045;-78
2021/04/29 05:48:00;;;;;;;6.63;4.95;;;;;;;12.09;73.16;98732.22;2218557;40;20046;-78
2021/04/29 05:49:32;;;;;;;8.00;4.25;;;;;;;12.13;73.07;98735.38;2216912;40;20041;-78
2021/04/29 05:51:03;;;;;;;6.47;4.03;;;;;;;12.25;72.83;98741.06;2212370;40;20034;-78
2021/04/29 05:52:34;;;;;;;6.45;3.65;;;;;;;12.27;72.42;98731.84;2212424;40;20041;-79
2021/04/29 05:54:05;;;;;;;7.80;4.10;;;;;;;12.25;72.17;98733.88;2218456;40;20383;-78
2021/04/29 05:55:37;;;;;;;6.88;4.53;;;;;;;12.25;72.41;98733.03;2217323;40;20029;-78
2021/04/29 05:57:08;;;;;;;5.93;3.80;;;;;;;12.24;72.39;98734.88;2218120;40;20135;-78
2021/04/29 05:58:39;;;;;;;7.85;4.63;;;;;;;12.24;72.44;98736.72;2216721;40;20045;-78
2021/04/29 06:00:12;;;;;;;8.57;3.80;;;;;;;12.20;72.33;98740.81;2218414;40;20048;-79
2021/04/29 06:01:43;;;;;;;6.07;3.88;;;;;;;12.17;72.27;98736.66;2217721;40;20404;-80
2021/04/29 06:03:15;;;;;;;8.48;3.90;;;;;;;12.19;72.23;98739.16;2219079;40;20042;-78
2021/04/29 06:04:47;;;;;;;5.97;3.83;;;;;;;12.16;72.19;98741.16;2216678;40;20172;-78
2021/04/29 06:06:18;;;;;;;7.47;4.55;;;;;;;12.17;71.80;98742.03;2217871;40;20056;-78
2021/04/29 06:07:54;;;;;;;6.43;4.43;;;;;;;12.18;71.81;98759.75;2216556;40;20049;-78
2021/04/29 06:09:26;;;;;;;5.25;3.53;;;;;;;12.19;71.72;98749.84;2218150;40;20373;-78
2021/04/29 06:10:57;;;;;;;7.10;3.85;;;;;;;12.21;71.66;98751.31;2216728;40;20045;-78
2021/04/29 06:12:28;;;;;;;6.53;4.20;;;;;;;12.24;71.59;98748.28;2220394;40;20037;-79
2021/04/29 06:14:00;;;;;;;10.77;4.45;;;;;;;12.29;71.59;98748.53;2219221;40;20472;-78
2021/04/29 06:15:32;;;;;;;8.35;3.85;;;;;;;12.39;71.55;98745.56;2220407;40;20282;-79
2021/04/29 06:17:04;;;;;;;5.78;3.78;;;;;;;12.44;71.28;98747.69;2215127;40;20064;-79
2021/04/29 06:18:36;;;;;;;6.97;3.60;;;;;;;12.49;71.06;98755.97;2212257;40;20115;-79
2021/04/29 06:20:13;;;;;;;6.50;3.65;;;;;;;12.54;70.86;98753.59;2211952;40;20057;-78
2021/04/29 06:21:44;;;;;;;6.55;3.60;;;;;;;12.60;70.44;98743.97;2215969;40;20421;-79
2021/04/29 06:23:15;;;;;;;6.65;4.13;;;;;;;12.68;70.46;98745.66;2217277;40;20053;-79
2021/04/29 06:24:47;;;;;;;6.28;3.58;;;;;;;12.77;70.31;98741.84;2218516;40;20096;-78
2021/04/29 06:26:18;;;;;;;6.32;3.35;;;;;;;12.87;70.00;98742.34;2216687;40;20056;-78
2021/04/29 06:27:49;;;;;;;5.90;3.30;;;;;;;13.00;69.61;98747.00;2217823;40;20076;-79
2021/04/29 06:29:21;;;;;;;5.97;3.25;;;;;;;13.01;69.62;98758.59;2216386;40;20342;-78
2021/04/29 06:30:54;;;;;;;5.60;3.17;;;;;;;13.01;69.53;98751.34;2218262;40;20052;-79
2021/04/29 06:32:26;;;;;;;6.50;3.30;;;;;;;13.09;69.51;98753.91;2216816;40;20410;-78
2021/04/29 06:33:58;;;;;;;6.80;3.55;;;;;;;13.10;69.48;98757.44;2217711;40;20042;-78
2021/04/29 06:35:29;;;;;;;6.75;3.50;;;;;;;13.07;69.42;98755.97;2216238;40;20368;-79
2021/04/29 06:37:01;;;;;;;7.13;3.80;;;;;;;13.02;68.88;98762.94;2217290;40;20039;-78
2021/04/29 06:38:34;;;;;;;6.15;3.55;;;;;;;12.94;68.61;98769.25;2216499;40;20429;-79
2021/04/29 06:40:07;;;;;;;6.13;4.22;;;;;;;12.91;68.61;98759.75;2219146;40;20050;-79
2021/04/29 06:41:38;;;;;;;4.85;3.13;;;;;;;12.89;68.69;98764.47;2217430;40;20116;-80
2021/04/29 06:43:10;;;;;;;5.55;3.17;;;;;;;12.99;68.74;98776.72;2221386;40;20030;-80
2021/04/29 06:44:41;;;;;;;5.68;3.17;;;;;;;13.02;68.37;98771.81;2218380;40;20139;-80
2021/04/29 06:46:12;;;;;;;6.93;3.38;;;;;;;12.98;67.92;98772.38;2217146;40;20032;-79
2021/04/29 06:47:43;;;;;;;4.40;2.30;;;;;;;12.89;68.10;98771.69;2217892;40;20314;-79
2021/04/29 06:49:16;;;;;;;4.55;2.90;;;;;;;12.88;67.94;98770.84;2218705;40;20026;-80
2021/04/29 06:50:48;;;;;;;6.72;2.90;;;;;;;12.99;67.85;98777.53;2211341;40;20034;-80
2021/04/29 06:52:20;;;;;;;4.80;2.55;;;;;;;13.12;67.50;98768.81;2215838;40;20057;-80
2021/04/29 06:53:51;;;;;;;5.47;3.13;;;;;;;13.18;67.11;98769.88;2216960;40;20034;-80
2021/04/29 06:55:22;;;;;;;4.63;2.60;;;;;;;13.17;67.07;98778.97;2218716;40;20061;-78
2021/04/29 06:56:54;;;;;;;4.70;2.80;;;;;;;13.25;67.08;98779.66;2217585;40;20045;-79
2021/04/29 06:58:27;;;;;;;4.50;2.80;;;;;;;13.30;67.00;98776.38;2218534;40;20379;-80
2021/04/29 06:59:58;;;;;;;5.00;3.13;;;;;;;13.37;66.84;98779.13;2216347;40;20052;-79
2021/04/29 07:01:30;;;;;;;7.43;3.33;;;;;;;13.31;66.92;98774.53;2217537;40;20503;-80
2021/04/29 07:03:01;;;;;;;14.93;3.53;;;;;;;13.19;66.92;98777.75;2218672;40;20056;-80
2021/04/29 07:04:33;;;;;;;5.60;2.50;;;;;;;13.14;67.22;98777.47;2217298;40;20443;-80
2021/04/29 07:06:05;;;;;;;8.30;3.17;;;;;;;13.14;67.60;98785.53;2218134;40;20040;-80
2021/04/29 07:07:36;;;;;;;4.72;2.63;;;;;;;13.24;67.28;98774.47;2215581;40;20044;-79
2021/04/29 07:09:07;;;;;;;5.55;3.25;;;;;;;13.37;66.78;98779.13;2218710;40;20041;-80
2021/04/29 07:10:38;;;;;;;7.90;3.22;;;;;;;13.45;66.64;98770.97;2217367;40;20025;-79
2021/04/29 07:12:10;;;;;;;6.53;3.17;;;;;;;13.53;66.64;98768.13;2218642;40;20029;-80
2021/04/29 07:13:42;;;;;;;7.70;2.92;;;;;;;13.59;66.58;98768.38;2217731;40;20381;-80